Time;durP1;ratioP1;P1;durP2;ratioP2;P2;SDS_P1;SDS_P2;PMS_P1;PMS_P2;Temp;Humidity;BMP_temperature;BMP_pressure;BME280_temperature;BME280_humidity;BME280_pressure;Samples;Min_cycle;Max_cycle;Signal;HPM_P1;HPM_P2
2022/07/21 00:00:40;;;;;;;14.20;11.13;;;;;;;19.88;74.84;101650.94;5033256;28;20112;-66
2022/07/21 00:03:05;;;;;;;12.63;10.55;;;;;;;19.84;75.66;101642.09;5029442;28;20510;-65
2022/07/21 00:05:31;;;;;;;12.93;11.15;;;;;;;19.75;75.89;101636.59;5027271;28;20556;-65
2022/07/21 00:07:56;;;;;;;12.45;10.23;;;;;;;19.79;75.08;101625.09;5047094;28;20021;-66
2022/07/21 00:10:24;;;;;;;14.38;10.55;;;;;;;19.79;74.92;101633.38;5045656;28;20124;-67
2022/07/21 00:12:50;;;;;;;13.77;10.80;;;;;;;19.85;73.98;101637.44;5037139;28;20471;-69
2022/07/21 00:15:19;;;;;;;15.48;11.48;;;;;;;19.75;75.49;101645.75;5036933;28;20063;-67
2022/07/21 00:17:44;;;;;;;14.93;10.63;;;;;;;19.76;75.04;101641.09;5029737;28;20047;-65
2022/07/21 00:20:12;;;;;;;14.80;11.02;;;;;;;19.68;75.54;101639.13;5029188;28;20049;-65
2022/07/21 00:22:37;;;;;;;14.77;11.15;;;;;;;19.58;76.16;101638.22;5022302;28;20029;-65
2022/07/21 00:25:05;;;;;;;12.95;11.05;;;;;;;19.54;75.38;101636.81;5046600;28;20106;-66
2022/07/21 00:27:31;;;;;;;11.77;9.55;;;;;;;19.54;75.07;101648.72;5063393;28;20039;-65
2022/07/21 00:29:56;;;;;;;16.02;10.82;;;;;;;19.48;75.71;101641.00;5027676;28;20460;-68
2022/07/21 00:32:22;;;;;;;12.80;9.70;;;;;;;19.46;75.78;101633.91;5034238;28;20369;-65
2022/07/21 00:34:47;;;;;;;13.07;10.43;;;;;;;19.47;75.97;101639.28;5043373;28;20040;-65
2022/07/21 00:37:12;;;;;;;16.65;10.27;;;;;;;19.46;75.22;101645.81;5028714;28;20111;-67
2022/07/21 00:39:38;;;;;;;13.50;10.18;;;;;;;19.47;75.26;101644.78;5064334;28;20033;-65
2022/07/21 00:42:04;;;;;;;16.02;10.85;;;;;;;19.40;76.00;101643.66;5047096;28;20033;-65
2022/07/21 00:44:29;;;;;;;14.20;10.25;;;;;;;19.37;75.74;101647.59;5043039;28;20464;-65
2022/07/21 00:46:56;;;;;;;12.10;9.82;;;;;;;19.31;76.67;101648.19;5039100;28;20072;-65
2022/07/21 00:49:21;;;;;;;14.55;10.43;;;;;;;19.29;76.64;101647.44;5046842;28;20167;-65
2022/07/21 00:51:47;;;;;;;15.18;10.52;;;;;;;19.30;75.96;101642.78;5047828;28;20037;-66
2022/07/21 00:54:15;;;;;;;16.48;10.77;;;;;;;19.26;76.76;101644.16;5029588;28;20072;-65
2022/07/21 00:56:42;;;;;;;11.80;9.57;;;;;;;19.20;76.84;101645.56;5047821;28;20111;-65
2022/07/21 00:59:07;;;;;;;15.05;10.40;;;;;;;19.15;77.73;101649.81;5043965;28;20037;-66
2022/07/21 01:01:33;;;;;;;11.25;9.60;;;;;;;19.12;77.11;101645.47;5031115;28;20095;-65
2022/07/21 01:03:58;;;;;;;14.10;10.13;;;;;;;19.11;77.13;101639.06;5037350;28;20440;-67
2022/07/21 01:06:25;;;;;;;14.30;10.32;;;;;;;19.11;77.33;101638.19;5027886;28;20076;-65
2022/07/21 01:08:51;;;;;;;11.63;9.70;;;;;;;19.06;77.69;101623.97;5028120;28;20120;-67
2022/07/21 01:11:18;;;;;;;13.43;9.95;;;;;;;19.09;76.79;101619.03;5028321;28;20120;-66
2022/07/21 01:13:44;;;;;;;15.57;10.10;;;;;;;19.01;77.53;101621.66;5043900;28;20090;-66
2022/07/21 01:16:10;;;;;;;11.77;9.55;;;;;;;19.03;77.03;101616.00;5040458;28;20049;-64
2022/07/21 01:18:36;;;;;;;14.10;11.18;;;;;;;18.98;78.22;101613.69;5028715;28;20120;-65
2022/07/21 01:21:06;;;;;;;14.00;10.25;;;;;;;18.95;77.38;101615.88;5027812;28;20029;-67
2022/07/21 01:23:33;;;;;;;14.07;10.07;;;;;;;18.96;77.11;101609.31;5032849;28;20033;-65
2022/07/21 01:25:58;;;;;;;14.27;9.95;;;;;;;18.92;77.81;101605.13;5036950;28;20029;-66
2022/07/21 01:28:24;;;;;;;13.63;10.98;;;;;;;18.88;78.10;101618.31;5034059;28;20480;-67
2022/07/21 01:30:50;;;;;;;15.65;11.60;;;;;;;18.83;78.37;101616.00;5041186;28;20036;-66
2022/07/21 01:33:16;;;;;;;13.52;9.82;;;;;;;18.84;77.22;101623.28;5045450;28;20444;-65
2022/07/21 01:35:42;;;;;;;15.43;10.80;;;;;;;18.83;77.97;101604.09;5026854;28;20104;-70
2022/07/21 01:41:28;;;;;;;16.83;11.43;;;;;;;18.84;77.76;101622.41;5025894;28;20444;-67
2022/07/21 01:43:44;;;;;;;13.32;10.70;;;;;;;18.78;78.50;101617.47;5035504;28;20041;-66
2022/07/21 01:46:13;;;;;;;14.45;11.38;;;;;;;18.72;78.69;101615.31;5027286;28;20057;-67
2022/07/21 01:48:42;;;;;;;13.57;11.10;;;;;;;18.71;79.35;101614.44;5027621;28;20140;-65
2022/07/21 01:51:08;;;;;;;15.50;11.45;;;;;;;18.69;80.06;101618.34;5025258;28;20504;-65
2022/07/21 01:53:33;;;;;;;12.50;10.00;;;;;;;18.71;78.82;101614.44;5027738;28;20037;-66
2022/07/21 01:55:59;;;;;;;15.55;11.55;;;;;;;18.69;80.06;101623.84;5042577;28;20037;-66
2022/07/21 01:58:24;;;;;;;13.23;10.93;;;;;;;18.69;78.88;101621.97;5033229;28;20048;-65
2022/07/21 02:00:50;;;;;;;17.90;11.63;;;;;;;18.74;79.95;101622.38;5035482;28;20045;-68
2022/07/21 02:03:15;;;;;;;19.25;11.80;;;;;;;18.75;79.47;101628.81;5027500;28;20021;-66
2022/07/21 02:05:41;;;;;;;14.73;11.18;;;;;;;18.79;79.69;101619.19;5025033;28;20404;-65
2022/07/21 02:08:06;;;;;;;15.20;11.82;;;;;;;18.79;79.13;101616.44;5027124;28;20453;-68
2022/07/21 02:10:31;;;;;;;15.70;10.88;;;;;;;18.78;79.32;101621.09;5045838;28;20032;-65
2022/07/21 02:12:57;;;;;;;18.20;11.32;;;;;;;18.76;79.11;101623.13;5038560;28;20037;-65
2022/07/21 02:15:22;;;;;;;17.40;12.50;;;;;;;18.69;80.45;101621.97;5030426;28;20037;-65
2022/07/21 02:17:48;;;;;;;19.40;12.55;;;;;;;18.70;79.82;101629.25;5035038;28;20514;-66
2022/07/21 02:20:13;;;;;;;15.82;11.90;;;;;;;18.73;79.98;101622.53;5028388;28;20032;-67
2022/07/21 02:22:39;;;;;;;15.85;12.13;;;;;;;18.73;80.47;101615.13;5047100;28;20047;-65
2022/07/21 02:25:04;;;;;;;19.15;12.93;;;;;;;18.72;80.54;101618.06;5024446;28;20044;-66
2022/07/21 02:27:30;;;;;;;19.10;12.57;;;;;;;18.68;81.26;101611.06;5028493;28;20045;-66
2022/07/21 02:29:55;;;;;;;14.98;11.68;;;;;;;18.69;80.31;101612.81;5029102;28;20028;-65
2022/07/21 02:32:20;;;;;;;21.30;12.98;;;;;;;18.71;80.49;101603.41;5046552;28;20115;-66
2022/07/21 02:34:46;;;;;;;16.42;11.68;;;;;;;18.72;80.64;101605.13;5050944;28;20040;-66
2022/07/21 02:37:11;;;;;;;20.13;13.15;;;;;;;18.72;80.81;101604.28;5049883;28;20126;-69
2022/07/21 02:39:37;;;;;;;15.75;12.38;;;;;;;18.71;80.24;101608.91;5031013;28;20119;-67
2022/07/21 02:42:02;;;;;;;18.65;12.43;;;;;;;18.73;78.83;101601.34;5034055;28;20041;-66
2022/07/21 02:44:29;;;;;;;16.88;11.98;;;;;;;18.77;79.96;101605.56;5044511;28;20438;-65
2022/07/21 02:46:54;;;;;;;16.58;11.95;;;;;;;18.76;79.71;101606.59;5031155;28;20438;-66
2022/07/21 02:49:20;;;;;;;16.88;13.23;;;;;;;18.71;80.62;101605.28;5028743;28;20092;-69
2022/07/21 02:51:45;;;;;;;17.80;12.65;;;;;;;18.73;79.89;101608.75;5031025;28;20484;-65
2022/07/21 02:54:11;;;;;;;19.25;14.07;;;;;;;18.70;80.84;101601.66;5050171;28;20033;-66
2022/07/21 02:56:36;;;;;;;18.70;13.75;;;;;;;18.71;80.32;101589.63;5050305;28;20578;-65
2022/07/21 02:59:02;;;;;;;20.17;13.68;;;;;;;18.69;80.15;101596.28;5037684;28;20041;-66
2022/07/21 03:01:27;;;;;;;22.15;13.38;;;;;;;18.71;80.32;101595.13;5044261;28;20092;-67
2022/07/21 03:03:53;;;;;;;15.82;12.55;;;;;;;18.72;80.35;101596.88;5030563;28;20038;-67
2022/07/21 03:06:18;;;;;;;18.50;14.00;;;;;;;18.76;80.00;101590.06;5029302;28;20460;-65
2022/07/21 03:08:43;;;;;;;16.45;12.70;;;;;;;18.79;79.07;101589.78;5025693;28;20033;-67
2022/07/21 03:11:09;;;;;;;15.50;12.50;;;;;;;18.80;80.00;101590.63;5030334;28;20040;-66
2022/07/21 03:13:34;;;;;;;19.90;14.93;;;;;;;18.81;79.04;101589.63;5045714;28;20145;-65
2022/07/21 03:16:00;;;;;;;21.02;14.77;;;;;;;18.81;79.68;101584.97;5042887;28;20029;-68
2022/07/21 03:18:25;;;;;;;21.33;14.75;;;;;;;18.79;80.47;101588.88;5048823;28;20045;-67
2022/07/21 03:20:50;;;;;;;20.73;14.20;;;;;;;18.75;80.66;101587.44;5048042;28;20053;-67
2022/07/21 03:23:16;;;;;;;19.70;14.85;;;;;;;18.75;79.06;101590.22;5041225;28;20037;-65
2022/07/21 03:25:41;;;;;;;20.77;14.13;;;;;;;18.74;80.09;101594.81;5030251;28;20041;-67
2022/07/21 03:28:07;;;;;;;21.33;14.35;;;;;;;18.76;79.53;101583.66;5045899;28;20037;-65
2022/07/21 03:30:32;;;;;;;21.67;15.15;;;;;;;18.76;80.52;101591.94;5033958;28;20041;-66
2022/07/21 03:32:57;;;;;;;22.23;15.48;;;;;;;18.71;80.82;101603.41;5030707;28;20112;-65
2022/07/21 03:35:23;;;;;;;35.08;14.38;;;;;;;18.72;79.60;101602.38;5029178;28;20033;-65
2022/07/21 03:37:56;;;;;;;24.33;14.35;;;;;;;18.76;79.57;101608.47;5030955;28;20045;-66
2022/07/21 03:40:24;;;;;;;24.85;14.63;;;;;;;18.78;80.37;101600.91;5028932;28;20045;-66
2022/07/21 03:42:51;;;;;;;20.52;13.55;;;;;;;18.82;79.59;101597.72;5037760;28;20029;-65
2022/07/21 03:45:16;;;;;;;21.50;14.85;;;;;;;18.79;80.11;101598.03;5029525;28;20056;-67
2022/07/21 03:47:41;;;;;;;23.08;16.00;;;;;;;18.78;80.56;101606.44;5028448;28;20045;-66
2022/07/21 03:50:07;;;;;;;21.50;15.30;;;;;;;18.81;79.90;101601.50;5028242;28;20037;-65
2022/07/21 03:52:33;;;;;;;20.73;15.02;;;;;;;18.77;80.44;101600.06;5028685;28;20122;-65
2022/07/21 03:55:07;;;;;;;23.48;15.48;;;;;;;18.76;80.60;101601.09;5028994;28;20404;-67
2022/07/21 03:57:47;;;;;;;20.30;13.93;;;;;;;18.80;79.50;101608.03;5029678;28;20037;-67
2022/07/21 04:00:17;;;;;;;22.77;14.65;;;;;;;18.80;79.62;101607.19;5028498;28;20029;-65
2022/07/21 04:02:43;;;;;;;22.90;15.57;;;;;;;18.79;79.79;101617.34;5027811;28;20357;-65
2022/07/21 04:05:13;;;;;;;21.58;15.00;;;;;;;18.72;80.34;101613.41;5029577;28;20021;-65
2022/07/21 04:07:41;;;;;;;19.05;13.20;;;;;;;18.72;80.64;101613.41;5028594;28;20048;-66
2022/07/21 04:10:07;;;;;;;15.75;12.57;;;;;;;18.79;78.60;101624.72;5029301;28;20104;-65
2022/07/21 04:12:33;;;;;;;18.73;13.95;;;;;;;18.81;80.40;101623.56;5036236;28;20048;-65
2022/07/21 04:14:58;;;;;;;23.52;15.00;;;;;;;18.78;80.24;101617.47;5038410;28;20029;-66
2022/07/21 04:17:24;;;;;;;21.30;13.05;;;;;;;18.79;79.83;101617.34;5029682;28;20086;-65
2022/07/21 04:19:49;;;;;;;23.42;14.27;;;;;;;18.78;80.03;101617.47;5044172;28;20120;-65
2022/07/21 04:22:14;;;;;;;20.90;14.20;;;;;;;18.77;79.59;101604.69;5028620;28;20069;-66
2022/07/21 04:24:41;;;;;;;20.67;13.57;;;;;;;18.74;80.80;101607.75;5026512;28;20025;-66
2022/07/21 04:27:06;;;;;;;20.13;12.68;;;;;;;18.77;79.79;101608.31;5040682;28;20492;-67
2022/07/21 04:29:31;;;;;;;20.42;12.77;;;;;;;18.79;80.02;101611.81;5042158;28;20032;-66
2022/07/21 04:31:57;;;;;;;20.58;12.85;;;;;;;18.79;79.30;101603.56;5040664;28;20417;-65
2022/07/21 04:34:22;;;;;;;21.23;12.77;;;;;;;18.79;80.15;101602.66;5031622;28;20033;-66
2022/07/21 04:36:48;;;;;;;22.17;12.70;;;;;;;18.78;80.82;101606.44;5028068;28;20261;-64
2022/07/21 04:39:13;;;;;;;22.00;13.63;;;;;;;18.66;82.00;101600.19;5026622;28;20048;-64
2022/07/21 04:41:38;;;;;;;22.77;12.15;;;;;;;18.56;81.51;101607.59;5028228;28;20124;-65
2022/07/21 04:44:04;;;;;;;22.13;13.38;;;;;;;18.52;82.65;101607.00;5043616;28;20048;-66
2022/07/21 04:46:29;;;;;;;19.75;12.00;;;;;;;18.51;81.60;101610.78;5042459;28;20091;-65
2022/07/21 04:48:55;;;;;;;26.63;13.77;;;;;;;18.48;83.02;101607.44;5027660;28;20037;-66
2022/07/21 04:51:20;;;;;;;22.45;12.90;;;;;;;18.48;81.92;101613.81;5041353;28;20021;-66
2022/07/21 04:53:45;;;;;;;17.95;12.00;;;;;;;18.51;82.09;101609.88;5048194;28;20064;-65
2022/07/21 04:56:11;;;;;;;22.48;13.20;;;;;;;18.48;81.92;101608.28;5047497;28;20037;-67
2022/07/21 04:58:36;;;;;;;18.75;12.15;;;;;;;18.49;82.23;101617.44;5042430;28;20103;-65
2022/07/21 05:01:02;;;;;;;19.40;11.82;;;;;;;18.50;82.92;101611.75;5027706;28;20041;-69
2022/07/21 05:03:27;;;;;;;26.10;12.98;;;;;;;18.50;82.37;101613.66;5026184;28;20183;-68
2022/07/21 05:05:52;;;;;;;16.90;11.05;;;;;;;18.50;81.63;101619.16;5026588;28;20515;-65
2022/07/21 05:08:18;;;;;;;20.33;12.10;;;;;;;18.55;82.08;101625.13;5026223;28;20021;-65
2022/07/21 05:10:43;;;;;;;18.73;11.57;;;;;;;18.57;82.20;101621.22;5025826;28;20112;-66
2022/07/21 05:13:09;;;;;;;18.00;12.38;;;;;;;18.60;82.36;101618.19;5035005;28;20013;-66
2022/07/21 05:15:34;;;;;;;19.55;12.43;;;;;;;18.57;82.66;101617.59;5031381;28;20045;-66
2022/07/21 05:17:59;;;;;;;18.10;11.88;;;;;;;18.60;82.32;101618.19;5027487;28;20442;-68
2022/07/21 05:20:25;;;;;;;20.20;12.23;;;;;;;18.56;81.80;101611.22;5025090;28;20033;-65
2022/07/21 05:22:50;;;;;;;19.98;11.75;;;;;;;18.64;81.64;101618.72;5042156;28;20037;-67
2022/07/21 05:25:15;;;;;;;17.25;11.75;;;;;;;18.67;81.58;101612.06;5026978;28;20037;-66
2022/07/21 05:27:41;;;;;;;17.63;12.35;;;;;;;18.74;81.69;101611.38;5042411;28;20017;-68
2022/07/21 05:30:07;;;;;;;16.23;11.88;;;;;;;18.76;81.10;101605.72;5026083;28;20055;-65
2022/07/21 05:32:33;;;;;;;20.42;12.73;;;;;;;18.70;81.10;101606.28;5026727;28;20049;-65
2022/07/21 05:34:58;;;;;;;19.13;11.45;;;;;;;18.69;81.68;101607.31;5034064;28;20068;-65
2022/07/21 05:37:24;;;;;;;20.15;11.95;;;;;;;18.67;82.84;101604.69;5040288;28;20053;-65
2022/07/21 05:39:49;;;;;;;17.67;11.30;;;;;;;18.68;81.65;101603.66;5043946;28;20104;-64
2022/07/21 05:42:14;;;;;;;23.30;12.38;;;;;;;18.67;82.23;101606.56;5044358;28;20332;-65
2022/07/21 05:44:40;;;;;;;21.58;11.65;;;;;;;18.71;81.75;101611.69;5028162;28;20696;-68
2022/07/21 05:47:05;;;;;;;16.17;10.57;;;;;;;18.72;81.58;101612.53;5043170;28;20040;-66
2022/07/21 05:49:30;;;;;;;19.63;11.07;;;;;;;18.72;81.75;101609.78;5045873;28;20128;-67
2022/07/21 05:51:56;;;;;;;19.60;11.20;;;;;;;18.69;81.18;101602.66;5045882;28;20051;-65
2022/07/21 05:54:21;;;;;;;18.73;11.23;;;;;;;18.76;81.99;101601.09;5030958;28;20049;-66
2022/07/21 05:56:47;;;;;;;19.33;11.68;;;;;;;18.78;81.64;101603.69;5029057;28;20039;-65
2022/07/21 05:59:12;;;;;;;19.02;11.63;;;;;;;18.79;81.36;101610.94;5032523;28;20045;-65
2022/07/21 06:01:37;;;;;;;20.65;11.90;;;;;;;18.87;81.20;101611.06;5035600;28;20334;-66
2022/07/21 06:04:03;;;;;;;21.10;12.73;;;;;;;18.86;81.68;101601.06;5025931;28;20048;-66
2022/07/21 06:06:28;;;;;;;15.82;11.73;;;;;;;18.94;80.90;101606.72;5026347;28;20033;-65
2022/07/21 06:08:55;;;;;;;21.20;12.48;;;;;;;19.02;81.19;101611.50;5041940;28;20041;-65
2022/07/21 06:11:21;;;;;;;17.73;12.02;;;;;;;19.07;81.42;101603.63;5035873;28;20040;-67
2022/07/21 06:13:46;;;;;;;20.67;11.85;;;;;;;19.17;80.16;101604.50;5038128;28;20087;-65
2022/07/21 06:16:12;;;;;;;24.08;13.35;;;;;;;19.30;81.73;101598.66;5036251;28;20036;-65
2022/07/21 06:18:38;;;;;;;23.33;12.68;;;;;;;19.40;80.14;101599.53;5046630;28;20043;-65
2022/07/21 06:21:04;;;;;;;23.27;13.82;;;;;;;19.50;79.60;101589.31;5060776;28;20059;-66
2022/07/21 06:23:30;;;;;;;23.02;14.27;;;;;;;19.66;80.40;101596.09;5043934;28;20127;-64
2022/07/21 06:25:55;;;;;;;20.75;14.32;;;;;;;19.81;79.22;101600.09;5045088;28;20128;-65
2022/07/21 06:28:21;;;;;;;22.83;14.02;;;;;;;19.98;78.92;101602.03;5042027;28;20135;-64
2022/07/21 06:30:47;;;;;;;32.67;15.38;;;;;;;20.25;78.60;101597.53;5043502;28;20041;-65
2022/07/21 06:33:12;;;;;;;25.08;15.68;;;;;;;20.44;77.06;101596.50;5061975;28;20032;-65
2022/07/21 06:35:38;;;;;;;27.50;16.63;;;;;;;20.60;77.11;101596.69;5044518;28;20475;-65
2022/07/21 06:38:04;;;;;;;22.27;15.15;;;;;;;20.92;76.47;101600.78;5044955;28;20071;-65
2022/07/21 06:40:29;;;;;;;29.55;14.75;;;;;;;20.98;74.33;101605.66;5040603;28;20029;-65
2022/07/21 06:42:56;;;;;;;31.38;18.83;;;;;;;20.93;75.34;101614.44;5034875;28;20083;-65
2022/07/21 06:45:22;;;;;;;30.27;17.52;;;;;;;20.86;75.80;101608.69;5033821;28;20040;-64
2022/07/21 06:47:47;;;;;;;26.48;16.92;;;;;;;20.90;75.82;101617.56;5027764;28;20050;-65
2022/07/21 06:50:13;;;;;;;29.08;17.10;;;;;;;20.86;75.12;101614.22;5025820;28;20128;-64
2022/07/21 06:52:38;;;;;;;28.65;17.27;;;;;;;20.88;74.19;101611.28;5040747;28;20017;-65
2022/07/21 06:55:06;;;;;;;28.10;17.00;;;;;;;20.88;74.93;101626.00;5026302;28;20029;-65
2022/07/21 06:57:33;;;;;;;31.05;17.00;;;;;;;20.91;74.15;101615.66;5025120;28;20043;-66
2022/07/21 06:59:58;;;;;;;29.48;17.23;;;;;;;20.99;73.89;101618.50;5039159;28;20094;-65
2022/07/21 07:02:23;;;;;;;27.58;16.13;;;;;;;21.11;75.16;101623.59;5026756;28;20037;-64
2022/07/21 07:04:49;;;;;;;29.67;16.90;;;;;;;21.15;73.74;101633.31;5026290;28;20052;-65
2022/07/21 07:07:14;;;;;;;25.10;16.65;;;;;;;21.02;74.15;101641.16;5030697;28;20021;-66
2022/07/21 07:09:40;;;;;;;27.05;17.65;;;;;;;20.74;74.95;101633.97;5045829;28;20044;-65
2022/07/21 07:12:08;;;;;;;31.77;18.88;;;;;;;20.57;75.68;101635.75;5045025;28;20049;-65
2022/07/21 07:14:35;;;;;;;28.38;16.55;;;;;;;20.53;74.90;101634.31;5040898;28;20032;-65
2022/07/21 07:17:02;;;;;;;29.17;18.27;;;;;;;20.36;75.25;101635.97;5046673;28;20037;-66
2022/07/21 07:19:28;;;;;;;32.83;17.83;;;;;;;20.24;75.62;101642.78;5028299;28;20029;-65
2022/07/21 07:21:54;;;;;;;31.00;17.85;;;;;;;20.16;76.14;101629.72;5044534;28;20514;-66
2022/07/21 07:24:19;;;;;;;30.80;17.80;;;;;;;20.08;76.06;101624.94;5044530;28;20037;-65
2022/07/21 07:26:45;;;;;;;31.63;17.70;;;;;;;20.02;77.89;101633.00;5030644;28;20381;-66
2022/07/21 07:29:11;;;;;;;30.17;18.65;;;;;;;20.00;77.17;101633.13;5044640;28;20049;-65
2022/07/21 07:31:36;;;;;;;31.40;18.58;;;;;;;19.94;77.75;101627.38;5032996;28;20067;-65
2022/07/21 07:34:02;;;;;;;27.73;18.65;;;;;;;19.90;78.94;101642.50;5047505;28;20029;-67
2022/07/21 07:36:28;;;;;;;32.15;18.58;;;;;;;19.74;78.85;101634.88;5044421;28;20056;-67
2022/07/21 07:38:56;;;;;;;30.08;17.45;;;;;;;19.70;78.47;101630.66;5048472;28;20056;-64
2022/07/21 07:41:24;;;;;;;37.72;19.83;;;;;;;19.64;79.93;101631.28;5035467;28;20057;-65
2022/07/21 07:43:51;;;;;;;33.83;18.60;;;;;;;19.62;79.78;101635.03;5038308;28;20029;-66
2022/07/21 07:46:17;;;;;;;31.75;18.38;;;;;;;19.64;78.92;101632.16;5042063;28;20040;-65
2022/07/21 07:48:42;;;;;;;27.17;17.42;;;;;;;19.54;79.31;101637.69;5047296;28;20028;-65
2022/07/21 07:51:10;;;;;;;27.88;16.95;;;;;;;19.45;81.14;101640.47;5045921;28;20032;-65
2022/07/21 07:53:36;;;;;;;25.20;16.92;;;;;;;19.40;81.36;101635.41;5038994;28;20036;-67
2022/07/21 07:56:01;;;;;;;30.98;17.45;;;;;;;19.32;81.84;101644.41;5045030;28;20362;-67
2022/07/21 07:58:26;;;;;;;23.38;14.85;;;;;;;19.24;81.60;101637.88;5045328;28;20044;-66
2022/07/21 08:00:52;;;;;;;24.80;15.15;;;;;;;19.14;82.73;101637.03;5043804;28;20068;-67
2022/07/21 08:03:18;;;;;;;20.27;13.57;;;;;;;19.16;81.97;101637.75;5047982;28;20444;-68
2022/07/21 08:05:43;;;;;;;19.00;12.57;;;;;;;19.08;83.23;101633.84;5046987;28;20044;-67
2022/07/21 08:08:09;;;;;;;16.33;11.10;;;;;;;19.03;82.50;101638.06;5045817;28;20394;-66
2022/07/21 08:10:34;;;;;;;15.38;10.82;;;;;;;18.98;83.04;101640.38;5042375;28;20045;-66
2022/07/21 08:13:00;;;;;;;18.20;11.13;;;;;;;18.96;83.31;101640.53;5045579;28;20151;-66
2022/07/21 08:15:25;;;;;;;17.60;10.23;;;;;;;18.98;83.97;101644.03;5036380;28;20040;-67
2022/07/21 08:17:51;;;;;;;13.27;9.43;;;;;;;19.03;83.76;101635.31;5044839;28;20110;-66
2022/07/21 08:20:16;;;;;;;13.75;9.50;;;;;;;19.10;84.13;101637.31;5046794;28;20036;-66
2022/07/21 08:22:42;;;;;;;12.65;9.70;;;;;;;19.06;83.73;101638.63;5046470;28;20542;-65
2022/07/21 08:25:07;;;;;;;12.82;8.90;;;;;;;19.02;84.45;101641.81;5044321;28;20506;-65
2022/07/21 08:27:33;;;;;;;14.63;9.10;;;;;;;19.03;84.24;101647.22;5048074;28;20162;-66
2022/07/21 08:29:58;;;;;;;11.77;8.68;;;;;;;18.99;84.09;101643.00;5028438;28;20679;-66
2022/07/21 08:32:24;;;;;;;11.30;8.10;;;;;;;19.00;85.10;101641.13;5026769;28;20026;-66
2022/07/21 08:34:49;;;;;;;10.95;7.80;;;;;;;19.04;84.56;101637.06;5043100;28;20044;-68
2022/07/21 08:37:15;;;;;;;10.10;7.72;;;;;;;19.03;84.33;101638.94;5026297;28;20061;-66
2022/07/21 08:39:40;;;;;;;10.45;8.05;;;;;;;18.98;85.03;101649.53;5026773;28;20399;-67
2022/07/21 08:42:07;;;;;;;12.60;8.20;;;;;;;18.96;85.13;101639.66;5031580;28;20426;-67
2022/07/21 08:44:34;;;;;;;9.18;7.63;;;;;;;19.04;84.29;101637.91;5040463;28;20480;-67
2022/07/21 08:46:59;;;;;;;10.40;8.32;;;;;;;19.10;84.40;101647.50;5042727;28;20087;-69
2022/07/21 08:49:25;;;;;;;9.30;7.70;;;;;;;19.11;84.18;101643.69;5043009;28;20033;-67
2022/07/21 08:51:51;;;;;;;12.07;8.15;;;;;;;19.11;85.44;101639.06;5037277;28;20039;-69
2022/07/21 08:54:20;;;;;;;10.43;8.40;;;;;;;19.06;84.84;101644.16;5044845;28;20144;-67
2022/07/21 08:56:46;;;;;;;11.07;8.65;;;;;;;19.09;85.02;101645.75;5044608;28;20059;-69
2022/07/21 08:59:12;;;;;;;13.25;8.25;;;;;;;19.07;85.02;101645.91;5041058;28;20048;-68
2022/07/21 09:01:37;;;;;;;11.65;8.18;;;;;;;19.03;85.21;101655.50;5042710;28;20404;-67
2022/07/21 09:04:20;;;;;;;9.98;7.75;;;;;;;19.04;84.28;101645.31;5040271;28;20194;-68
2022/07/21 09:06:52;;;;;;;10.65;7.45;;;;;;;19.03;84.83;101646.34;5044073;28;20507;-68
2022/07/21 09:09:20;;;;;;;10.02;8.55;;;;;;;19.02;85.46;101653.72;5057617;28;20053;-68
2022/07/21 09:11:46;;;;;;;11.05;8.82;;;;;;;19.06;85.25;101651.56;5047760;28;20021;-68
2022/07/21 09:14:16;;;;;;;9.98;8.38;;;;;;;19.10;85.38;101642.84;5042924;28;20388;-70
2022/07/21 09:16:44;;;;;;;10.70;8.18;;;;;;;19.18;84.91;101649.53;5042822;28;20037;-68
2022/07/21 09:19:16;;;;;;;10.23;8.40;;;;;;;19.20;85.20;101647.47;5045036;28;20480;-68
2022/07/21 09:21:41;;;;;;;9.63;8.50;;;;;;;19.15;85.22;101652.56;5028399;28;20076;-68
2022/07/21 09:24:15;;;;;;;10.93;8.13;;;;;;;19.13;85.26;101646.34;5026973;28;20068;-68
2022/07/21 09:27:05;;;;;;;9.10;8.10;;;;;;;19.15;85.36;101656.19;5053543;28;20036;-68
2022/07/21 09:29:37;;;;;;;7.00;6.30;;;;;;;19.16;85.39;101660.69;5040508;28;20061;-67
2022/07/21 09:32:13;;;;;;;6.57;5.85;;;;;;;19.22;85.28;101659.25;5041937;28;20029;-68
2022/07/21 09:34:39;;;;;;;6.07;5.32;;;;;;;19.25;84.46;101667.22;5043745;28;20138;-68
2022/07/21 09:37:06;;;;;;;6.30;4.80;;;;;;;19.26;85.20;101668.97;5037066;28;20041;-68
2022/07/21 09:39:55;;;;;;;4.97;4.43;;;;;;;19.32;84.91;101674.75;5030685;28;20090;-69
2022/07/21 09:42:48;;;;;;;4.72;3.92;;;;;;;19.34;84.24;101661.66;5036601;28;20088;-68
2022/07/21 09:45:17;;;;;;;5.32;4.28;;;;;;;19.32;83.97;101676.66;5010402;28;20055;-69
2022/07/21 09:47:45;;;;;;;4.95;3.90;;;;;;;19.30;84.08;101681.44;5046414;28;20551;-67
2022/07/21 09:50:13;;;;;;;5.28;3.90;;;;;;;19.31;84.39;101684.06;5014972;28;20041;-68
2022/07/21 09:52:45;;;;;;;4.35;3.95;;;;;;;19.32;84.58;101682.16;5030803;28;20060;-69
2022/07/21 09:55:14;;;;;;;5.65;4.25;;;;;;;19.38;84.79;101682.44;5049116;28;20123;-70
2022/07/21 09:57:40;;;;;;;4.72;4.25;;;;;;;19.40;84.42;101679.56;5038524;28;20477;-68
2022/07/21 10:00:12;;;;;;;4.40;4.00;;;;;;;19.44;84.22;101677.34;5035025;28;20021;-68
2022/07/21 10:02:38;;;;;;;5.05;4.55;;;;;;;19.46;84.27;101683.59;5038033;28;20043;-70
2022/07/21 10:05:12;;;;;;;7.68;4.25;;;;;;;19.45;83.71;101690.16;5037811;28;20388;-69
2022/07/21 10:07:43;;;;;;;4.72;4.20;;;;;;;19.48;83.21;101687.94;5039528;28;20502;-71
2022/07/21 10:10:10;;;;;;;4.75;4.25;;;;;;;19.48;83.51;101689.81;5038261;28;20028;-69
2022/07/21 10:12:35;;;;;;;5.53;4.03;;;;;;;19.47;82.78;101700.00;5039393;28;20029;-69
2022/07/21 10:15:01;;;;;;;5.53;4.10;;;;;;;19.47;83.72;101701.88;5034287;28;20096;-68
2022/07/21 10:17:26;;;;;;;4.45;4.03;;;;;;;19.53;83.17;101704.91;5040874;28;20441;-69
2022/07/21 10:20:03;;;;;;;5.53;4.05;;;;;;;19.59;83.67;101707.09;5035705;28;20044;-68
2022/07/21 10:22:51;;;;;;;5.47;4.38;;;;;;;19.67;83.67;101705.50;5041125;28;20060;-70
2022/07/21 10:25:17;;;;;;;4.60;4.18;;;;;;;19.72;82.65;101712.31;5036049;28;20067;-70
2022/07/21 10:28:10;;;;;;;5.93;4.80;;;;;;;19.66;82.04;101717.56;5036089;28;20032;-68
2022/07/21 10:30:41;;;;;;;5.95;4.30;;;;;;;19.60;82.80;101719.91;5050735;28;20073;-69
2022/07/21 10:33:06;;;;;;;5.75;4.47;;;;;;;19.61;82.95;101718.88;5035679;28;20079;-69
2022/07/21 10:35:32;;;;;;;7.28;4.55;;;;;;;19.46;82.63;101722.25;5039300;28;20028;-70
2022/07/21 10:37:59;;;;;;;6.13;4.70;;;;;;;19.33;83.27;101722.53;5040812;28;20036;-68
2022/07/21 10:40:24;;;;;;;9.40;5.35;;;;;;;19.15;83.20;101730.66;5036544;28;20067;-69
2022/07/21 10:42:59;;;;;;;7.75;5.22;;;;;;;19.09;83.13;101729.38;5043897;28;20029;-72
2022/07/21 10:45:32;;;;;;;7.47;5.20;;;;;;;19.13;83.66;101729.97;5034908;28;20033;-69
2022/07/21 10:47:59;;;;;;;7.82;5.82;;;;;;;19.26;85.43;101732.44;5058233;28;20278;-68
2022/07/21 10:50:32;;;;;;;8.93;5.82;;;;;;;19.30;83.12;101722.81;5040855;28;20065;-70
2022/07/21 10:53:00;;;;;;;8.70;5.78;;;;;;;19.32;83.67;101727.19;5043382;28;20431;-68
2022/07/21 10:55:28;;;;;;;7.20;5.45;;;;;;;19.46;82.82;101731.38;5040464;28;20079;-69
2022/07/21 10:58:28;;;;;;;8.27;5.68;;;;;;;19.52;81.95;101739.06;5036535;28;20491;-71
2022/07/21 11:01:05;;;;;;;10.82;6.22;;;;;;;19.64;82.13;101731.53;5023364;28;20051;-68
2022/07/21 11:03:37;;;;;;;8.50;6.43;;;;;;;19.77;82.68;101742.25;5044339;28;20040;-69
2022/07/21 11:06:05;;;;;;;9.90;6.47;;;;;;;19.86;81.24;101731.19;5042065;28;20044;-69
2022/07/21 11:08:32;;;;;;;9.30;6.63;;;;;;;19.92;80.75;101728.84;5046699;28;20045;-69
2022/07/21 11:11:21;;;;;;;8.40;6.05;;;;;;;20.08;80.31;101729.94;5035782;28;20190;-69
2022/07/21 11:14:09;;;;;;;10.88;6.78;;;;;;;19.99;79.87;101729.97;5044937;28;20033;-68